createdAt,value
2023-02-19T00:01:42.001Z,11.79
2023-02-19T00:04:15.151Z,11.74
2023-02-19T00:06:44.147Z,11.83
2023-02-19T00:09:13.366Z,11.73
2023-02-19T00:11:45.782Z,11.61
2023-02-19T00:14:17.887Z,11.60
2023-02-19T00:16:46.439Z,11.82
2023-02-19T00:19:18.149Z,11.57
2023-02-19T00:21:46.533Z,11.70
2023-02-19T00:24:17.815Z,11.75
2023-02-19T00:26:48.250Z,11.60
2023-02-19T00:29:25.028Z,11.48
2023-02-19T00:31:53.068Z,11.47
2023-02-19T00:34:23.121Z,11.57
2023-02-19T00:36:52.984Z,11.80
2023-02-19T00:39:21.932Z,11.66
2023-02-19T00:41:55.059Z,11.62
2023-02-19T00:44:26.981Z,11.79
2023-02-19T00:46:59.680Z,11.63
2023-02-19T00:49:27.715Z,11.32
2023-02-19T00:52:00.930Z,11.51
2023-02-19T00:54:33.724Z,11.52
2023-02-19T00:57:03.182Z,11.72
2023-02-19T00:59:35.529Z,11.70
2023-02-19T01:02:06.017Z,11.78
2023-02-19T01:04:35.049Z,11.64
2023-02-19T01:07:07.065Z,11.54
2023-02-19T01:09:45.869Z,11.78
2023-02-19T01:12:17.315Z,11.72
2023-02-19T01:14:57.192Z,11.76
2023-02-19T01:17:29.963Z,11.56
2023-02-19T01:19:59.675Z,11.59
2023-02-19T01:22:27.947Z,11.53
2023-02-19T01:25:01.200Z,11.79
2023-02-19T01:27:31.235Z,11.63
2023-02-19T01:30:01.069Z,11.73
2023-02-19T01:32:32.736Z,11.71
2023-02-19T01:35:01.733Z,11.76
2023-02-19T01:37:30.382Z,11.67
2023-02-19T01:39:59.674Z,11.70
2023-02-19T01:42:29.052Z,11.60
2023-02-19T01:45:27.628Z,11.72
2023-02-19T01:48:07.634Z,11.66
2023-02-19T01:50:41.442Z,11.60
2023-02-19T01:53:13.997Z,11.77
2023-02-19T01:55:45.926Z,11.50
2023-02-19T01:58:15.848Z,11.73
2023-02-19T02:00:48.918Z,11.67
2023-02-19T02:03:17.124Z,11.65
2023-02-19T02:05:55.425Z,11.69
2023-02-19T02:08:44.739Z,11.67
2023-02-19T02:11:15.291Z,11.64
2023-02-19T02:13:43.513Z,11.66
2023-02-19T02:16:23.333Z,11.69
2023-02-19T02:19:02.400Z,11.46
2023-02-19T02:21:55.595Z,11.63
2023-02-19T02:24:49.659Z,11.40
2023-02-19T02:27:39.608Z,11.44
2023-02-19T02:30:23.096Z,11.61
2023-02-19T02:32:58.212Z,11.53
2023-02-19T02:35:33.382Z,11.49
2023-02-19T02:38:07.134Z,11.45
2023-02-19T02:40:36.089Z,11.18
2023-02-19T02:43:04.877Z,11.20
2023-02-19T02:45:40.085Z,11.20
2023-02-19T02:48:23.287Z,11.08
2023-02-19T02:50:55.155Z,11.39
2023-02-19T02:53:48.518Z,11.24
2023-02-19T02:56:20.169Z,11.22
2023-02-19T02:58:50.823Z,11.19
2023-02-19T03:01:42.681Z,11.05
2023-02-19T03:04:14.093Z,11.26
2023-02-19T03:06:56.326Z,11.13
2023-02-19T03:09:34.823Z,11.33
2023-02-19T03:12:24.310Z,11.49
2023-02-19T03:15:16.312Z,11.47
2023-02-19T03:18:11.545Z,11.47
2023-02-19T03:20:45.936Z,11.52
2023-02-19T03:23:15.961Z,11.36
2023-02-19T03:26:02.389Z,11.41
2023-02-19T03:28:48.068Z,11.45
2023-02-19T03:31:21.478Z,11.34
2023-02-19T03:34:00.507Z,11.38
2023-02-19T03:36:36.160Z,11.40
2023-02-19T03:39:11.910Z,11.39
2023-02-19T03:41:50.399Z,11.36
2023-02-19T03:44:25.262Z,11.45
2023-02-19T03:46:58.112Z,11.35
2023-02-19T03:49:34.793Z,11.57
2023-02-19T03:52:14.936Z,11.35
2023-02-19T03:54:53.707Z,11.54
2023-02-19T03:57:29.356Z,11.49
2023-02-19T04:00:04.996Z,11.45
2023-02-19T04:02:41.224Z,11.50
2023-02-19T04:05:17.229Z,11.46
2023-02-19T04:07:50.267Z,11.42
2023-02-19T04:10:20.292Z,11.40
2023-02-19T04:12:55.362Z,11.31
2023-02-19T04:15:29.144Z,11.46
2023-02-19T04:18:03.353Z,11.45
2023-02-19T04:20:40.850Z,11.22
2023-02-19T04:23:09.799Z,11.10
2023-02-19T04:25:41.076Z,11.24
2023-02-19T04:28:13.095Z,10.99
2023-02-19T04:30:43.124Z,11.18
2023-02-19T04:33:11.530Z,11.13
2023-02-19T04:35:45.045Z,10.94
2023-02-19T04:38:14.373Z,11.13
2023-02-19T04:40:43.530Z,11.23
2023-02-19T04:43:14.758Z,11.25
2023-02-19T04:45:43.015Z,11.23
2023-02-19T04:48:26.293Z,11.26
2023-02-19T04:50:56.896Z,11.37
2023-02-19T04:53:26.449Z,11.29
2023-02-19T04:55:55.903Z,11.30
2023-02-19T04:58:25.421Z,11.55
2023-02-19T05:00:54.003Z,11.58
2023-02-19T05:03:22.507Z,11.61
2023-02-19T05:05:51.287Z,11.56
2023-02-19T05:08:21.448Z,11.71
2023-02-19T05:10:49.982Z,11.62
2023-02-19T05:13:20.054Z,11.76
2023-02-19T05:16:00.090Z,11.70
2023-02-19T05:18:28.528Z,11.80
2023-02-19T05:20:58.584Z,11.88
2023-02-19T05:23:32.070Z,11.78
2023-02-19T05:26:01.450Z,11.81
2023-02-19T05:28:32.021Z,11.86
2023-02-19T05:31:06.110Z,11.54
2023-02-19T05:33:35.700Z,11.84
2023-02-19T05:36:11.307Z,11.59
2023-02-19T05:38:42.741Z,11.55
2023-02-19T05:41:16.826Z,11.69
2023-02-19T05:43:49.106Z,11.66
2023-02-19T05:46:19.871Z,11.57
2023-02-19T05:48:50.456Z,11.76
2023-02-19T05:51:21.547Z,11.63
2023-02-19T05:53:55.540Z,11.86
2023-02-19T05:56:35.297Z,11.73
2023-02-19T05:59:06.899Z,11.78
2023-02-19T06:01:37.411Z,11.85
2023-02-19T06:04:07.084Z,11.98
2023-02-19T06:06:40.012Z,11.62
2023-02-19T06:09:10.011Z,11.81
2023-02-19T06:11:39.066Z,12.00
2023-02-19T06:14:11.251Z,11.84
2023-02-19T06:16:41.491Z,11.83
2023-02-19T06:19:10.048Z,11.87
2023-02-19T06:21:41.521Z,11.99
2023-02-19T06:24:13.138Z,11.76
2023-02-19T06:26:43.782Z,11.85
2023-02-19T06:29:14.714Z,11.85
2023-02-19T06:31:47.020Z,11.93
2023-02-19T06:34:16.875Z,11.81
2023-02-19T06:36:52.667Z,12.04
2023-02-19T06:39:22.466Z,12.00
2023-02-19T06:41:54.826Z,11.97
2023-02-19T06:44:24.225Z,11.82
2023-02-19T06:47:00.547Z,11.88
2023-02-19T06:49:31.716Z,11.89
2023-02-19T06:52:02.003Z,11.89
2023-02-19T06:54:31.550Z,11.82
2023-02-19T06:56:59.483Z,11.84
2023-02-19T06:59:28.300Z,11.91
2023-02-19T07:01:59.174Z,11.87
2023-02-19T07:04:29.069Z,11.93
2023-02-19T07:06:58.336Z,11.73
2023-02-19T07:09:28.811Z,11.78
2023-02-19T07:11:58.867Z,11.70
2023-02-19T07:14:29.791Z,11.80
2023-02-19T07:16:59.717Z,11.65
2023-02-19T07:19:30.828Z,11.69
2023-02-19T07:22:01.782Z,11.71
2023-02-19T07:24:33.548Z,11.78
2023-02-19T07:27:05.198Z,11.64
2023-02-19T07:29:35.735Z,11.76
2023-02-19T07:32:08.805Z,11.73
2023-02-19T07:34:45.815Z,11.55
2023-02-19T07:37:21.293Z,11.30
2023-02-19T07:39:53.669Z,11.50
2023-02-19T07:42:26.601Z,11.69
2023-02-19T07:45:00.504Z,11.44
2023-02-19T07:47:30.807Z,11.67
2023-02-19T07:49:59.427Z,11.61
2023-02-19T07:52:28.959Z,11.64
2023-02-19T07:54:57.275Z,11.63
2023-02-19T07:57:37.761Z,11.80
2023-02-19T08:00:10.891Z,11.74
2023-02-19T08:02:57.177Z,11.86
2023-02-19T08:05:28.183Z,11.85
2023-02-19T08:07:56.556Z,11.90
2023-02-19T08:10:51.525Z,11.67
2023-02-19T08:13:23.401Z,11.73
2023-02-19T08:16:10.900Z,11.87
2023-02-19T08:18:46.717Z,12.01
2023-02-19T08:21:15.146Z,12.10
2023-02-19T08:23:43.353Z,12.12
2023-02-19T08:26:15.161Z,11.93
2023-02-19T08:28:45.204Z,11.55
2023-02-19T08:31:15.560Z,11.47
2023-02-19T08:33:43.961Z,11.25
2023-02-19T08:36:16.563Z,11.12
2023-02-19T08:38:44.529Z,11.14
2023-02-19T08:41:14.571Z,11.12
2023-02-19T08:43:49.576Z,11.36
2023-02-19T08:46:19.322Z,11.52
2023-02-19T08:48:48.170Z,11.35
2023-02-19T08:51:18.160Z,11.63
2023-02-19T08:53:48.567Z,11.78
2023-02-19T08:56:21.507Z,11.80
2023-02-19T08:58:51.087Z,11.51
2023-02-19T09:01:20.357Z,12.12
2023-02-19T09:03:48.641Z,12.08
2023-02-19T09:06:22.885Z,12.19
2023-02-19T09:08:52.188Z,12.21
2023-02-19T09:11:23.129Z,12.28
2023-02-19T09:13:52.405Z,12.48
2023-02-19T09:16:22.243Z,12.56
2023-02-19T09:18:52.414Z,12.40
2023-02-19T09:21:21.627Z,12.44
2023-02-19T09:23:50.245Z,12.43
2023-02-19T09:26:18.523Z,12.66
2023-02-19T09:28:48.728Z,12.51
2023-02-19T09:31:21.287Z,12.47
2023-02-19T09:33:50.709Z,12.12
2023-02-19T09:36:22.985Z,12.64
2023-02-19T09:38:53.912Z,12.51
2023-02-19T09:41:32.172Z,12.39
2023-02-19T09:44:02.385Z,12.32
2023-02-19T09:46:41.426Z,12.11
2023-02-19T09:49:21.437Z,12.19
2023-02-19T09:51:54.037Z,12.21
2023-02-19T09:54:24.217Z,11.86
2023-02-19T09:56:56.248Z,11.98
2023-02-19T09:59:28.986Z,11.98
2023-02-19T10:02:05.232Z,11.97
2023-02-19T10:04:35.374Z,12.00
2023-02-19T10:07:04.578Z,11.95
2023-02-19T10:09:34.200Z,11.93
2023-02-19T10:12:03.482Z,11.39
2023-02-19T10:14:38.906Z,11.72
2023-02-19T10:17:25.009Z,11.88
2023-02-19T10:19:55.138Z,11.70
2023-02-19T10:22:27.848Z,11.63
2023-02-19T10:24:58.113Z,11.68
2023-02-19T10:27:34.308Z,11.72
2023-02-19T10:30:05.200Z,11.55
2023-02-19T10:32:34.978Z,11.64
2023-02-19T10:35:14.268Z,11.60
2023-02-19T10:37:52.574Z,11.58
2023-02-19T10:40:23.987Z,11.59
2023-02-19T10:43:08.299Z,11.59
2023-02-19T10:45:48.739Z,11.66
2023-02-19T10:48:26.032Z,11.79
2023-02-19T10:51:00.575Z,11.77
2023-02-19T10:53:47.580Z,11.64
2023-02-19T10:56:17.992Z,11.58
2023-02-19T10:58:47.669Z,11.62
2023-02-19T11:01:22.218Z,11.45
2023-02-19T11:03:55.891Z,11.53
2023-02-19T11:06:28.470Z,11.75
2023-02-19T11:09:08.290Z,11.65
2023-02-19T11:11:42.933Z,11.63
2023-02-19T11:14:19.482Z,11.96
2023-02-19T11:16:52.011Z,12.19
2023-02-19T11:19:55.936Z,12.21
2023-02-19T11:22:34.438Z,12.08
2023-02-19T11:25:27.084Z,11.98
2023-02-19T11:27:58.032Z,12.27
2023-02-19T11:30:39.310Z,12.50
2023-02-19T11:33:28.155Z,12.58
2023-02-19T11:36:23.261Z,12.47
2023-02-19T11:38:53.615Z,12.88
2023-02-19T11:41:43.018Z,13.05
2023-02-19T11:44:32.418Z,12.57
2023-02-19T11:47:17.628Z,12.62
2023-02-19T11:49:57.818Z,12.60
2023-02-19T11:52:38.416Z,12.86
2023-02-19T11:55:25.889Z,13.11
2023-02-19T11:58:16.287Z,13.54
2023-02-19T12:00:57.020Z,13.81
2023-02-19T12:03:42.510Z,13.63
2023-02-19T12:06:21.166Z,13.48
2023-02-19T12:09:23.360Z,13.38
2023-02-19T12:12:05.081Z,13.16
2023-02-19T12:14:55.379Z,13.30
2023-02-19T12:17:56.596Z,13.72
2023-02-19T12:20:34.953Z,14.42
2023-02-19T12:23:36.529Z,14.30
2023-02-19T12:26:18.326Z,14.57
2023-02-19T12:29:28.387Z,14.13
2023-02-19T12:32:22.568Z,13.85
2023-02-19T12:35:19.624Z,14.02
2023-02-19T12:37:54.089Z,13.66
2023-02-19T12:40:39.402Z,13.50
2023-02-19T12:43:16.911Z,13.15
2023-02-19T12:45:50.041Z,13.24
2023-02-19T12:48:31.025Z,13.30
2023-02-19T12:51:06.647Z,12.91
2023-02-19T12:53:44.345Z,12.43
2023-02-19T12:56:18.782Z,12.26
2023-02-19T12:58:56.170Z,12.24
2023-02-19T13:01:31.447Z,12.57
2023-02-19T13:04:18.084Z,12.90
2023-02-19T13:06:53.194Z,12.99
2023-02-19T13:09:29.946Z,12.98
2023-02-19T13:12:03.856Z,12.90
2023-02-19T13:14:42.940Z,12.98
2023-02-19T13:17:26.923Z,13.05
2023-02-19T13:20:15.294Z,13.14
2023-02-19T13:23:10.296Z,13.26
2023-02-19T13:26:00.052Z,13.51
2023-02-19T13:28:45.284Z,13.49
2023-02-19T13:31:31.972Z,13.89
2023-02-19T13:34:11.931Z,14.01
2023-02-19T13:36:41.467Z,14.02
2023-02-19T13:41:54.776Z,14.04
2023-02-19T13:44:27.062Z,14.00
2023-02-19T13:46:57.183Z,13.88
2023-02-19T13:49:50.978Z,14.11
2023-02-19T13:52:41.618Z,14.40
2023-02-19T13:55:58.234Z,14.08
2023-02-19T13:58:55.333Z,13.69
2023-02-19T14:02:14.167Z,13.48
2023-02-19T14:04:51.776Z,13.43
2023-02-19T14:07:52.631Z,13.48
2023-02-19T14:10:57.981Z,13.65
2023-02-19T14:14:08.643Z,13.70
2023-02-19T14:17:22.104Z,13.51
2023-02-19T14:19:58.733Z,13.53
2023-02-19T14:23:15.904Z,13.59
2023-02-19T14:25:55.490Z,13.66
2023-02-19T14:28:31.300Z,13.89
2023-02-19T14:31:04.749Z,14.04
2023-02-19T14:33:37.974Z,13.80
2023-02-19T14:36:20.841Z,13.70
2023-02-19T14:38:54.777Z,13.80
2023-02-19T14:41:25.952Z,13.94
2023-02-19T14:43:58.002Z,13.43
2023-02-19T14:46:32.085Z,13.49
2023-02-19T14:49:07.969Z,13.57
2023-02-19T14:51:45.190Z,13.56
2023-02-19T14:54:19.259Z,13.43
2023-02-19T14:56:52.179Z,13.32
2023-02-19T14:59:28.293Z,13.65
2023-02-19T15:01:58.707Z,13.57
2023-02-19T15:04:34.378Z,13.55
2023-02-19T15:07:10.642Z,13.60
2023-02-19T15:09:53.209Z,13.31
2023-02-19T15:12:25.945Z,13.41
2023-02-19T15:15:03.367Z,13.45
2023-02-19T15:17:39.270Z,13.50
2023-02-19T15:20:14.440Z,13.52
2023-02-19T15:22:46.966Z,13.27
2023-02-19T15:25:21.197Z,13.37
2023-02-19T15:27:53.027Z,13.58
2023-02-19T15:30:24.175Z,13.14
2023-02-19T15:33:00.106Z,13.34
2023-02-19T15:35:39.052Z,13.19
2023-02-19T15:38:19.634Z,13.21
2023-02-19T15:40:52.773Z,13.05
2023-02-19T15:43:29.342Z,13.22
2023-02-19T15:46:04.684Z,12.88
2023-02-19T15:48:41.446Z,12.81
2023-02-19T15:51:18.905Z,12.90
2023-02-19T15:53:53.383Z,12.93
2023-02-19T15:56:29.888Z,12.52
2023-02-19T15:59:06.005Z,12.78
2023-02-19T16:01:40.271Z,12.82
2023-02-19T16:04:27.926Z,12.56
2023-02-19T16:07:02.139Z,12.69
2023-02-19T16:09:40.649Z,12.89
2023-02-19T16:12:23.208Z,12.73
2023-02-19T16:14:56.709Z,12.94
2023-02-19T16:17:37.513Z,12.73
2023-02-19T16:20:13.506Z,12.27
2023-02-19T16:22:46.862Z,12.26
2023-02-19T16:25:40.994Z,12.27
2023-02-19T16:28:20.723Z,12.64
2023-02-19T16:30:59.598Z,12.44
2023-02-19T16:33:42.128Z,12.53
2023-02-19T16:36:42.578Z,12.42
2023-02-19T16:39:30.276Z,12.35
2023-02-19T16:42:24.175Z,12.33
2023-02-19T16:44:52.374Z,12.46
2023-02-19T16:47:29.912Z,12.50
2023-02-19T16:50:05.053Z,12.27
2023-02-19T16:52:33.329Z,12.51
2023-02-19T16:55:04.397Z,12.35
2023-02-19T16:57:34.518Z,12.32
2023-02-19T17:00:02.811Z,12.20
2023-02-19T17:02:35.563Z,12.38
2023-02-19T17:05:05.601Z,12.20
2023-02-19T17:07:37.724Z,12.25
2023-02-19T17:10:07.268Z,12.30
2023-02-19T17:12:40.182Z,12.22
2023-02-19T17:15:10.133Z,12.24
2023-02-19T17:17:40.448Z,12.28
2023-02-19T17:20:21.348Z,12.23
2023-02-19T17:22:49.693Z,12.32
2023-02-19T17:25:18.403Z,12.24
2023-02-19T17:27:48.480Z,12.00
2023-02-19T17:30:25.446Z,12.27
2023-02-19T17:32:55.429Z,12.05
2023-02-19T17:35:23.744Z,12.12
2023-02-19T17:37:54.317Z,12.18
2023-02-19T17:40:32.774Z,12.21
2023-02-19T17:43:09.249Z,12.22
2023-02-19T17:45:37.517Z,12.01
2023-02-19T17:48:06.614Z,11.92
2023-02-19T17:50:36.247Z,12.16
2023-02-19T17:53:07.175Z,11.92
2023-02-19T17:55:36.795Z,11.75
2023-02-19T17:58:09.546Z,11.85
2023-02-19T18:00:38.377Z,11.81
2023-02-19T18:03:11.374Z,12.08
2023-02-19T18:05:42.869Z,12.14
2023-02-19T18:08:13.979Z,11.83
2023-02-19T18:10:45.648Z,11.97
2023-02-19T18:13:24.639Z,12.08
2023-02-19T18:15:59.298Z,11.99
2023-02-19T18:18:32.307Z,11.90
2023-02-19T18:21:05.921Z,12.11
2023-02-19T18:23:38.898Z,12.14
2023-02-19T18:26:10.473Z,11.92
2023-02-19T18:28:41.289Z,12.09
2023-02-19T18:31:11.565Z,11.87
2023-02-19T18:33:41.278Z,11.73
2023-02-19T18:36:13.078Z,11.76
2023-02-19T18:38:42.409Z,11.39
2023-02-19T18:41:14.430Z,11.83
2023-02-19T18:43:46.172Z,11.63
2023-02-19T18:46:17.071Z,11.66
2023-02-19T18:48:45.591Z,11.81
2023-02-19T18:51:14.212Z,11.71
2023-02-19T18:53:53.064Z,11.69
2023-02-19T18:56:23.333Z,11.56
2023-02-19T18:58:53.564Z,11.53
2023-02-19T19:01:31.566Z,11.62
2023-02-19T19:04:05.383Z,11.64
2023-02-19T19:06:36.108Z,11.69
2023-02-19T19:09:04.665Z,11.49
2023-02-19T19:11:33.111Z,11.68
2023-02-19T19:14:03.638Z,11.59
2023-02-19T19:16:32.807Z,11.59
2023-02-19T19:19:00.922Z,11.68
2023-02-19T19:21:29.520Z,11.79
2023-02-19T19:23:59.246Z,11.86
2023-02-19T19:26:27.400Z,11.80
2023-02-19T19:28:56.519Z,11.64
2023-02-19T19:31:27.353Z,11.49
2023-02-19T19:33:56.097Z,11.75
2023-02-19T19:36:25.057Z,11.60
2023-02-19T19:38:54.047Z,11.74
2023-02-19T19:41:22.819Z,11.61
2023-02-19T19:43:54.909Z,11.78
2023-02-19T19:46:24.186Z,11.71
2023-02-19T19:49:06.029Z,11.67
2023-02-19T19:51:34.682Z,11.66
2023-02-19T19:54:08.179Z,11.53
2023-02-19T19:56:42.282Z,11.55
2023-02-19T19:59:11.630Z,11.59
2023-02-19T20:01:48.565Z,11.72
2023-02-19T20:04:22.009Z,11.72
2023-02-19T20:06:52.377Z,11.44
2023-02-19T20:09:25.538Z,11.64
2023-02-19T20:11:54.767Z,11.57
2023-02-19T20:14:25.113Z,10.96
2023-02-19T20:16:55.453Z,11.73
2023-02-19T20:19:24.884Z,11.62
2023-02-19T20:21:55.440Z,11.39
2023-02-19T20:24:28.678Z,11.66
2023-02-19T20:27:01.007Z,11.34
2023-02-19T20:29:34.230Z,11.33
2023-02-19T20:32:04.606Z,11.73
2023-02-19T20:34:38.704Z,11.66
2023-02-19T20:37:09.330Z,11.69
2023-02-19T20:39:38.993Z,11.52
2023-02-19T20:42:10.934Z,11.66
2023-02-19T20:44:39.501Z,11.63
2023-02-19T20:47:09.617Z,11.42
2023-02-19T20:49:41.416Z,11.32
2023-02-19T20:52:12.378Z,11.34
2023-02-19T20:54:43.075Z,11.45
2023-02-19T20:57:13.217Z,11.40
2023-02-19T20:59:46.580Z,11.35
2023-02-19T21:02:19.699Z,11.34
2023-02-19T21:04:49.063Z,11.25
2023-02-19T21:07:20.159Z,11.50
2023-02-19T21:09:48.229Z,11.56
2023-02-19T21:12:17.180Z,11.60
2023-02-19T21:14:45.058Z,11.25
2023-02-19T21:17:14.093Z,11.32
2023-02-19T21:19:42.333Z,11.20
2023-02-19T21:22:13.574Z,11.23
2023-02-19T21:24:42.327Z,11.19
2023-02-19T21:27:10.944Z,11.35
2023-02-19T21:29:40.127Z,11.31
2023-02-19T21:32:10.643Z,11.24
2023-02-19T21:34:39.412Z,10.85
2023-02-19T21:37:10.979Z,11.26
2023-02-19T21:39:43.019Z,11.15
2023-02-19T21:42:11.414Z,11.21
2023-02-19T21:44:41.686Z,11.12
2023-02-19T21:47:13.124Z,10.93
2023-02-19T21:49:42.862Z,11.13
2023-02-19T21:52:12.094Z,11.03
2023-02-19T21:54:41.704Z,11.21
2023-02-19T21:57:10.451Z,11.23
2023-02-19T21:59:39.643Z,11.24
2023-02-19T22:02:08.639Z,11.16
2023-02-19T22:04:36.683Z,11.09
2023-02-19T22:07:05.289Z,11.22
2023-02-19T22:09:34.794Z,11.07
2023-02-19T22:12:07.799Z,11.12
2023-02-19T22:14:36.735Z,10.90
2023-02-19T22:17:07.368Z,11.09
2023-02-19T22:19:37.456Z,11.17
2023-02-19T22:22:07.068Z,11.12
2023-02-19T22:24:36.718Z,11.16
2023-02-19T22:27:07.981Z,10.94
2023-02-19T22:29:38.998Z,10.91
2023-02-19T22:32:07.300Z,11.10
2023-02-19T22:34:41.109Z,10.93
2023-02-19T22:37:09.592Z,11.13
2023-02-19T22:39:40.630Z,10.85
2023-02-19T22:42:10.541Z,10.99
2023-02-19T22:44:39.537Z,10.99
2023-02-19T22:47:07.739Z,11.11
2023-02-19T22:49:43.600Z,10.90
2023-02-19T22:52:15.768Z,11.00
2023-02-19T22:54:44.261Z,10.77
2023-02-19T22:57:14.018Z,10.97
2023-02-19T22:59:42.264Z,10.80
2023-02-19T23:02:11.484Z,10.81
2023-02-19T23:04:41.976Z,11.02
2023-02-19T23:07:11.984Z,10.81
2023-02-19T23:09:40.288Z,10.96
2023-02-19T23:12:11.885Z,11.00
2023-02-19T23:14:44.868Z,10.66
2023-02-19T23:17:15.923Z,10.72
2023-02-19T23:19:43.938Z,10.34
2023-02-19T23:22:13.571Z,10.35
2023-02-19T23:24:42.058Z,10.72
2023-02-19T23:27:14.598Z,10.71
2023-02-19T23:29:44.495Z,10.60
2023-02-19T23:32:14.001Z,10.53
2023-02-19T23:34:52.288Z,10.44
2023-02-19T23:37:21.529Z,10.44
2023-02-19T23:39:49.527Z,10.45
2023-02-19T23:42:18.441Z,10.52
2023-02-19T23:44:52.436Z,10.35
2023-02-19T23:47:22.503Z,10.40
2023-02-19T23:49:51.386Z,10.53
2023-02-19T23:52:23.882Z,10.43
2023-02-19T23:54:52.675Z,10.03
2023-02-19T23:57:20.589Z,9.87
2023-02-19T23:59:50.179Z,10.00
